sensor_id;sensor_type;location;lat;lon;timestamp;temperature;humidity
5956;DHT22;3004;48.080;11.600;2023-07-16T00:02:14;21.90;99.90
5956;DHT22;3004;48.080;11.600;2023-07-16T00:04:41;21.80;99.90
5956;DHT22;3004;48.080;11.600;2023-07-16T00:07:11;21.80;99.90
5956;DHT22;3004;48.080;11.600;2023-07-16T00:09:40;21.70;99.90
5956;DHT22;3004;48.080;11.600;2023-07-16T00:12:08;21.50;99.90
5956;DHT22;3004;48.080;11.600;2023-07-16T00:14:37;21.50;99.90
5956;DHT22;3004;48.080;11.600;2023-07-16T00:17:04;21.30;99.90
5956;DHT22;3004;48.080;11.600;2023-07-16T00:19:31;21.20;99.90
5956;DHT22;3004;48.080;11.600;2023-07-16T00:21:58;21.20;99.90
5956;DHT22;3004;48.080;11.600;2023-07-16T00:24:25;21.20;99.90
5956;DHT22;3004;48.080;11.600;2023-07-16T00:26:54;21.10;99.90
5956;DHT22;3004;48.080;11.600;2023-07-16T00:29:25;20.90;99.90
5956;DHT22;3004;48.080;11.600;2023-07-16T00:32:20;21.00;99.90
5956;DHT22;3004;48.080;11.600;2023-07-16T00:55:54;20.40;99.90
5956;DHT22;3004;48.080;11.600;2023-07-16T00:58:21;20.20;99.90
5956;DHT22;3004;48.080;11.600;2023-07-16T01:00:53;20.30;99.90
5956;DHT22;3004;48.080;11.600;2023-07-16T01:03:20;20.20;99.90
5956;DHT22;3004;48.080;11.600;2023-07-16T01:06:08;20.40;99.90
5956;DHT22;3004;48.080;11.600;2023-07-16T01:08:42;20.40;99.90
5956;DHT22;3004;48.080;11.600;2023-07-16T01:11:17;20.40;99.90
5956;DHT22;3004;48.080;11.600;2023-07-16T01:13:58;20.30;99.90
5956;DHT22;3004;48.080;11.600;2023-07-16T01:16:27;20.30;99.90
5956;DHT22;3004;48.080;11.600;2023-07-16T01:18:57;20.20;99.90
5956;DHT22;3004;48.080;11.600;2023-07-16T01:21:34;20.30;99.90
5956;DHT22;3004;48.080;11.600;2023-07-16T01:24:34;20.10;99.90
5956;DHT22;3004;48.080;11.600;2023-07-16T01:27:34;20.10;99.90
5956;DHT22;3004;48.080;11.600;2023-07-16T01:30:11;20.10;99.90
5956;DHT22;3004;48.080;11.600;2023-07-16T01:32:42;20.10;99.90
5956;DHT22;3004;48.080;11.600;2023-07-16T01:38:52;20.10;99.90
5956;DHT22;3004;48.080;11.600;2023-07-16T01:41:19;20.10;99.90
5956;DHT22;3004;48.080;11.600;2023-07-16T01:45:54;20.10;99.90
5956;DHT22;3004;48.080;11.600;2023-07-16T01:50:05;20.10;99.90
5956;DHT22;3004;48.080;11.600;2023-07-16T01:52:32;20.00;99.90
5956;DHT22;3004;48.080;11.600;2023-07-16T01:54:59;20.00;99.90
5956;DHT22;3004;48.080;11.600;2023-07-16T01:57:46;19.90;99.90
5956;DHT22;3004;48.080;11.600;2023-07-16T02:00:16;20.00;99.90
5956;DHT22;3004;48.080;11.600;2023-07-16T02:02:53;20.00;99.90
5956;DHT22;3004;48.080;11.600;2023-07-16T02:35:50;19.90;99.90
5956;DHT22;3004;48.080;11.600;2023-07-16T02:38:22;19.90;99.90
5956;DHT22;3004;48.080;11.600;2023-07-16T02:41:00;19.90;99.90
5956;DHT22;3004;48.080;11.600;2023-07-16T03:13:30;19.90;99.90
5956;DHT22;3004;48.080;11.600;2023-07-16T03:22:48;20.00;99.90
5956;DHT22;3004;48.080;11.600;2023-07-16T03:25:29;20.00;99.90
5956;DHT22;3004;48.080;11.600;2023-07-16T03:31:36;20.10;99.90
5956;DHT22;3004;48.080;11.600;2023-07-16T03:34:07;20.20;99.90
5956;DHT22;3004;48.080;11.600;2023-07-16T03:36:34;20.20;99.90
5956;DHT22;3004;48.080;11.600;2023-07-16T03:39:15;20.20;99.90
5956;DHT22;3004;48.080;11.600;2023-07-16T03:45:18;20.20;99.90
5956;DHT22;3004;48.080;11.600;2023-07-16T03:51:35;20.20;99.90
5956;DHT22;3004;48.080;11.600;2023-07-16T03:54:02;20.10;99.90
5956;DHT22;3004;48.080;11.600;2023-07-16T03:57:00;20.10;99.90
5956;DHT22;3004;48.080;11.600;2023-07-16T03:59:41;20.00;99.90
5956;DHT22;3004;48.080;11.600;2023-07-16T04:02:09;19.90;99.90
5956;DHT22;3004;48.080;11.600;2023-07-16T04:04:41;19.90;99.90
5956;DHT22;3004;48.080;11.600;2023-07-16T04:07:43;19.90;99.90
5956;DHT22;3004;48.080;11.600;2023-07-16T04:10:11;19.90;99.90
5956;DHT22;3004;48.080;11.600;2023-07-16T04:12:38;19.90;99.90
5956;DHT22;3004;48.080;11.600;2023-07-16T04:15:08;20.00;99.90
5956;DHT22;3004;48.080;11.600;2023-07-16T04:17:36;19.90;99.90
5956;DHT22;3004;48.080;11.600;2023-07-16T07:48:07;19.00;99.90
5956;DHT22;3004;48.080;11.600;2023-07-16T07:50:34;19.10;99.90
5956;DHT22;3004;48.080;11.600;2023-07-16T07:53:26;19.00;99.90
5956;DHT22;3004;48.080;11.600;2023-07-16T07:56:01;19.10;99.90
5956;DHT22;3004;48.080;11.600;2023-07-16T08:12:12;19.00;99.90
5956;DHT22;3004;48.080;11.600;2023-07-16T08:14:40;19.00;99.90
5956;DHT22;3004;48.080;11.600;2023-07-16T08:17:07;19.10;99.90
5956;DHT22;3004;48.080;11.600;2023-07-16T08:19:38;19.10;99.90
5956;DHT22;3004;48.080;11.600;2023-07-16T08:22:06;19.00;99.90
5956;DHT22;3004;48.080;11.600;2023-07-16T08:24:46;19.10;99.90
5956;DHT22;3004;48.080;11.600;2023-07-16T08:27:21;19.10;99.90
5956;DHT22;3004;48.080;11.600;2023-07-16T08:29:52;19.10;99.90
5956;DHT22;3004;48.080;11.600;2023-07-16T08:32:26;19.20;99.90
5956;DHT22;3004;48.080;11.600;2023-07-16T08:35:02;19.40;99.90
5956;DHT22;3004;48.080;11.600;2023-07-16T08:37:43;19.50;99.90
5956;DHT22;3004;48.080;11.600;2023-07-16T08:40:18;19.50;99.90
5956;DHT22;3004;48.080;11.600;2023-07-16T09:16:49;20.00;99.90
5956;DHT22;3004;48.080;11.600;2023-07-16T09:19:27;19.90;99.90
5956;DHT22;3004;48.080;11.600;2023-07-16T09:22:32;20.00;99.90
5956;DHT22;3004;48.080;11.600;2023-07-16T09:25:02;20.50;99.90
5956;DHT22;3004;48.080;11.600;2023-07-16T09:27:31;20.50;99.90
5956;DHT22;3004;48.080;11.600;2023-07-16T10:25:24;23.00;99.90
5956;DHT22;3004;48.080;11.600;2023-07-16T10:33:31;23.00;99.90
